Time;durP1;ratioP1;P1;durP2;ratioP2;P2;SDS_P1;SDS_P2;PMS_P1;PMS_P2;Temp;Humidity;BMP_temperature;BMP_pressure;BME280_temperature;BME280_humidity;BME280_pressure;Samples;Min_cycle;Max_cycle;Signal;HPM_P1;HPM_P2
2022/10/16 00:00:35;;;;;;;;;;;;;;;16.31;100.00;100535.03;3058364;19;19944;-54
2022/10/16 00:01:40;;;;;;;;;;;;;;;16.31;100.00;100524.25;3057815;19;19919;-55
2022/10/16 00:02:42;;;;;;;;;;;;;;;16.31;100.00;100540.44;3058357;19;19940;-56
2022/10/16 00:03:47;;;;;;;;;;;;;;;16.31;100.00;100527.81;3058276;19;19922;-53
2022/10/16 00:04:49;;;;;;;;;;;;;;;16.31;100.00;100537.72;3057264;19;19939;-55
2022/10/16 00:05:53;;;;;;;;;;;;;;;16.31;100.00;100532.34;3057453;19;19919;-54
2022/10/16 00:06:55;;;;;;;;;;;;;;;16.31;100.00;100529.66;3058259;19;19997;-54
2022/10/16 00:08:00;;;;;;;;;;;;;;;16.30;100.00;100527.97;3057242;19;19943;-54
2022/10/16 00:09:04;;;;;;;;;;;;;;;16.29;100.00;100526.25;3057349;19;20257;-55
2022/10/16 00:10:06;;;;;;;;;;;;;;;16.29;100.00;100526.25;3057381;19;19930;-54
2022/10/16 00:11:11;;;;;;;;;;;;;;;16.29;100.00;100528.97;3058188;19;19922;-55
2022/10/16 00:12:13;;;;;;;;;;;;;;;16.21;100.00;100519.66;3057953;19;19942;-55
2022/10/16 00:13:19;;;;;;;;;;;;;;;16.28;100.00;100524.56;3057805;19;20259;-52
2022/10/16 00:14:21;;;;;;;;;;;;;;;16.29;100.00;100527.13;3057983;19;19946;-54
2022/10/16 00:15:25;;;;;;;;;;;;;;;16.30;100.00;100527.97;3058082;19;20227;-54
2022/10/16 00:16:30;;;;;;;;;;;;;;;16.30;100.00;100522.59;3057915;19;19922;-55
2022/10/16 00:17:32;;;;;;;;;;;;;;;16.29;100.00;100526.25;3055955;19;20027;-52
2022/10/16 00:18:37;;;;;;;;;;;;;;;16.29;100.00;100531.66;3056984;19;19966;-52
2022/10/16 00:19:39;;;;;;;;;;;;;;;16.28;100.00;100525.41;3058133;19;19936;-55
2022/10/16 00:21:08;;;;;;;;;;;;;;;16.28;100.00;100529.94;3058338;19;19931;-53
2022/10/16 00:22:29;;;;;;;;;;;;;;;16.26;100.00;100529.22;3058039;19;19915;-53
2022/10/16 00:23:34;;;;;;;;;;;;;;;16.27;100.00;100528.22;3057827;19;19923;-53
2022/10/16 00:24:39;;;;;;;;;;;;;;;16.26;100.00;100521.97;3057598;19;20346;-53
2022/10/16 00:25:41;;;;;;;;;;;;;;;16.27;100.00;100522.84;3057898;19;19919;-51
2022/10/16 00:26:45;;;;;;;;;;;;;;;16.28;100.00;100529.94;3057814;19;19999;-54
2022/10/16 00:27:47;;;;;;;;;;;;;;;16.26;100.00;100529.22;3057044;19;19927;-55
2022/10/16 00:28:52;;;;;;;;;;;;;;;16.28;100.00;100529.94;3056595;19;19939;-52
2022/10/16 00:29:54;;;;;;;;;;;;;;;16.29;100.00;100526.25;3057557;19;19922;-55
2022/10/16 00:30:58;;;;;;;;;;;;;;;16.28;100.00;100529.94;3057553;19;19915;-52
2022/10/16 00:32:00;;;;;;;;;;;;;;;16.29;100.00;100537.03;3057813;19;20251;-51
2022/10/16 00:33:08;;;;;;;;;;;;;;;16.28;100.00;100532.63;3057691;19;19994;-53
2022/10/16 00:34:10;;;;;;;;;;;;;;;16.29;100.00;100531.66;3057430;19;19930;-54
2022/10/16 00:35:15;;;;;;;;;;;;;;;16.27;100.00;100534.47;3057430;19;19925;-50
2022/10/16 00:36:18;;;;;;;;;;;;;;;16.26;100.00;100538.16;3057824;19;19922;-51
2022/10/16 00:37:22;;;;;;;;;;;;;;;16.26;100.00;100534.59;3058021;19;19927;-54
2022/10/16 00:38:24;;;;;;;;;;;;;;;16.27;100.00;100533.63;3057577;19;19918;-54
2022/10/16 00:39:29;;;;;;;;;;;;;;;16.27;100.00;100539.00;3057812;19;19922;-54
2022/10/16 00:40:31;;;;;;;;;;;;;;;16.26;100.00;100534.59;3057946;19;19915;-54
2022/10/16 00:41:36;;;;;;;;;;;;;;;16.25;100.00;100541.81;3057597;19;19939;-55
2022/10/16 00:42:37;;;;;;;;;;;;;;;16.23;100.00;100541.09;3057750;19;20078;-54
2022/10/16 00:43:43;;;;;;;;;;;;;;;16.23;100.00;100537.53;3057237;19;20243;-54
2022/10/16 00:44:56;;;;;;;;;;;;;;;16.18;100.00;100536.06;3056209;19;19922;-54
2022/10/16 00:46:01;;;;;;;;;;;;;;;16.14;100.00;100540.03;3057143;19;19926;-54
2022/10/16 00:47:03;;;;;;;;;;;;;;;16.14;100.00;100537.34;3057357;19;20612;-54
2022/10/16 00:48:09;;;;;;;;;;;;;;;16.15;100.00;100547.13;3057451;19;19915;-51
2022/10/16 00:49:12;;;;;;;;;;;;;;;16.13;100.00;100546.41;3056270;19;20382;-54
2022/10/16 00:50:21;;;;;;;;;;;;;;;16.12;100.00;100546.53;3056846;19;19959;-53
2022/10/16 00:51:25;;;;;;;;;;;;;;;16.11;100.00;100545.66;3056850;19;19979;-51
2022/10/16 00:52:30;;;;;;;;;;;;;;;16.09;100.00;100547.63;3057596;19;19995;-51
2022/10/16 00:53:32;;;;;;;;;;;;;;;16.07;100.00;100536.13;3057298;19;20331;-53
2022/10/16 00:54:36;;;;;;;;;;;;;;;16.05;100.00;100529.19;3056783;19;19918;-52
2022/10/16 00:55:38;;;;;;;;;;;;;;;16.04;100.00;100532.84;3057211;19;19959;-52
2022/10/16 00:56:46;;;;;;;;;;;;;;;16.02;100.00;100534.81;3056736;19;20255;-52
2022/10/16 00:57:48;;;;;;;;;;;;;;;16.00;100.00;100532.25;3056217;19;19932;-51
2022/10/16 00:58:52;;;;;;;;;;;;;;;15.99;100.00;100527.84;3056474;19;19915;-53
2022/10/16 00:59:54;;;;;;;;;;;;;;;15.99;100.00;100535.06;3057172;19;19929;-54
2022/10/16 01:00:59;;;;;;;;;;;;;;;15.98;100.00;100527.97;3057402;19;20655;-53
2022/10/16 01:02:01;;;;;;;;;;;;;;;15.98;100.00;100533.34;3056893;19;19999;-55
2022/10/16 01:03:24;;;;;;;;;;;;;;;15.97;100.00;100527.13;3056790;19;20256;-53
2022/10/16 01:04:26;;;;;;;;;;;;;;;15.97;100.00;100537.88;3056110;19;20359;-50
2022/10/16 01:05:45;;;;;;;;;;;;;;;15.96;100.00;100538.84;3056373;19;19919;-53
2022/10/16 01:06:55;;;;;;;;;;;;;;;15.97;100.00;100537.88;3056415;19;19982;-54
2022/10/16 01:08:03;;;;;;;;;;;;;;;15.97;100.00;100537.88;3056295;19;20000;-53
2022/10/16 01:09:25;;;;;;;;;;;;;;;15.99;100.00;100540.44;3056704;19;20396;-55
2022/10/16 01:10:29;;;;;;;;;;;;;;;15.99;100.00;100540.44;3056279;19;20258;-54
2022/10/16 01:11:52;;;;;;;;;;;;;;;15.98;100.00;100539.59;3056389;19;20382;-54
2022/10/16 01:12:57;;;;;;;;;;;;;;;16.00;100.00;100542.16;3056712;19;19918;-52
2022/10/16 01:14:03;;;;;;;;;;;;;;;16.00;100.00;100534.94;3055584;19;19918;-50
2022/10/16 01:15:10;;;;;;;;;;;;;;;16.02;100.00;100540.19;3055356;19;19927;-52
2022/10/16 01:16:16;;;;;;;;;;;;;;;16.02;100.00;100535.66;3056958;19;19927;-54
2022/10/16 01:17:19;;;;;;;;;;;;;;;16.02;100.00;100543.75;3056511;19;19923;-53
2022/10/16 01:18:26;;;;;;;;;;;;;;;16.02;100.00;100541.06;3055896;19;19919;-53
2022/10/16 01:19:31;;;;;;;;;;;;;;;16.04;100.00;100549.00;3056511;19;19919;-50
2022/10/16 01:20:40;;;;;;;;;;;;;;;16.04;100.00;100549.00;3057260;19;19931;-51
2022/10/16 01:21:43;;;;;;;;;;;;;;;16.04;100.00;100552.56;3057306;19;19929;-54
2022/10/16 01:22:53;;;;;;;;;;;;;;;16.04;100.00;100555.25;3056221;19;19922;-52
2022/10/16 01:24:18;;;;;;;;;;;;;;;16.03;100.00;100553.53;3056434;19;20363;-50
2022/10/16 01:25:38;;;;;;;;;;;;;;;16.07;100.00;100554.97;3056048;19;19919;-53
2022/10/16 01:26:47;;;;;;;;;;;;;;;16.08;100.00;100561.22;3056837;19;19919;-53
2022/10/16 01:27:51;;;;;;;;;;;;;;;16.05;100.00;100562.34;3057159;19;19927;-52
2022/10/16 01:28:57;;;;;;;;;;;;;;;16.05;100.00;100567.72;3054124;19;19915;-53
2022/10/16 01:30:22;;;;;;;;;;;;;;;16.06;100.00;100566.72;3056238;19;20381;-50
2022/10/16 01:31:28;;;;;;;;;;;;;;;16.05;100.00;100567.72;3056584;19;20430;-50
2022/10/16 01:32:41;;;;;;;;;;;;;;;16.05;100.00;100559.66;3056793;19;20349;-50
2022/10/16 01:33:44;;;;;;;;;;;;;;;16.04;100.00;100566.00;3057181;19;19919;-55
2022/10/16 01:34:53;;;;;;;;;;;;;;;16.05;100.00;100564.19;3056580;19;19923;-52
2022/10/16 01:35:56;;;;;;;;;;;;;;;16.04;100.00;100560.63;3056794;19;19922;-53
2022/10/16 01:37:08;;;;;;;;;;;;;;;16.05;100.00;100566.88;3056331;19;20026;-52
2022/10/16 01:38:15;;;;;;;;;;;;;;;16.04;100.00;100560.63;3056223;19;19927;-52
2022/10/16 01:39:21;;;;;;;;;;;;;;;16.05;100.00;100567.72;3056707;19;20323;-54
2022/10/16 01:40:23;;;;;;;;;;;;;;;16.04;100.00;100568.72;3055841;19;20262;-55
2022/10/16 01:41:30;;;;;;;;;;;;;;;16.04;100.00;100565.16;3055496;19;19926;-53
2022/10/16 01:42:34;;;;;;;;;;;;;;;16.02;100.00;100562.59;3055614;19;19938;-52
2022/10/16 01:43:40;;;;;;;;;;;;;;;16.03;100.00;100564.31;3055545;19;19914;-55
2022/10/16 01:44:42;;;;;;;;;;;;;;;16.02;100.00;100565.28;3055803;19;20361;-53
2022/10/16 01:45:48;;;;;;;;;;;;;;;16.02;100.00;100557.22;3055771;19;19982;-51
2022/10/16 01:46:50;;;;;;;;;;;;;;;16.03;100.00;100568.84;3056196;19;19926;-53
2022/10/16 01:47:54;;;;;;;;;;;;;;;16.03;100.00;100563.44;3056072;19;19930;-55
2022/10/16 01:48:56;;;;;;;;;;;;;;;16.04;100.00;100557.94;3054981;19;19918;-53
2022/10/16 01:50:01;;;;;;;;;;;;;;;16.05;100.00;100561.50;3055315;19;19922;-52
2022/10/16 01:51:06;;;;;;;;;;;;;;;16.04;100.00;100555.25;3055517;19;19919;-50
2022/10/16 01:52:12;;;;;;;;;;;;;;;16.05;100.00;100556.97;3055721;19;19919;-53
2022/10/16 01:53:14;;;;;;;;;;;;;;;16.05;100.00;100554.28;3055912;19;19919;-52
2022/10/16 01:54:18;;;;;;;;;;;;;;;16.03;100.00;100553.53;3055647;19;19982;-51
2022/10/16 01:55:28;;;;;;;;;;;;;;;16.04;100.00;100551.69;3055092;19;19923;-54
2022/10/16 01:56:33;;;;;;;;;;;;;;;16.04;100.00;100557.94;3056036;19;19998;-55
2022/10/16 01:57:36;;;;;;;;;;;;;;;16.01;100.00;100550.13;3055327;19;19943;-56
2022/10/16 01:58:42;;;;;;;;;;;;;;;16.01;100.00;100560.88;3055666;19;20036;-52
2022/10/16 01:59:46;;;;;;;;;;;;;;;15.99;100.00;100562.84;3055518;19;19926;-53
2022/10/16 02:00:50;;;;;;;;;;;;;;;15.97;100.00;100562.09;3055778;19;19922;-53
2022/10/16 02:01:55;;;;;;;;;;;;;;;15.96;100.00;100560.38;3056226;19;19919;-52
2022/10/16 02:02:59;;;;;;;;;;;;;;;15.95;100.00;100556.00;3056638;19;19978;-53
2022/10/16 02:04:03;;;;;;;;;;;;;;;15.93;100.00;100557.97;3055690;19;19932;-55
2022/10/16 02:05:12;;;;;;;;;;;;;;;15.90;100.00;100558.22;3056041;19;19926;-54
2022/10/16 02:06:14;;;;;;;;;;;;;;;15.88;100.00;100557.50;3055076;19;19931;-52
2022/10/16 02:07:18;;;;;;;;;;;;;;;15.87;100.00;100560.31;3056091;19;19939;-53
2022/10/16 02:08:21;;;;;;;;;;;;;;;15.83;100.00;100560.56;3056522;19;19930;-55
2022/10/16 02:09:25;;;;;;;;;;;;;;;15.83;100.00;100554.31;3056386;19;19919;-55
2022/10/16 02:10:30;;;;;;;;;;;;;;;15.82;100.00;100549.91;3056038;19;20326;-56
2022/10/16 02:11:36;;;;;;;;;;;;;;;15.82;100.00;100558.84;3055207;19;19932;-50
2022/10/16 02:12:39;;;;;;;;;;;;;;;15.81;100.00;100553.59;3055359;19;20333;-52
2022/10/16 02:13:44;;;;;;;;;;;;;;;15.83;100.00;100551.63;3055579;19;19931;-55
2022/10/16 02:14:46;;;;;;;;;;;;;;;15.82;100.00;100552.59;3055457;19;20297;-55
2022/10/16 02:15:50;;;;;;;;;;;;;;;15.83;100.00;100562.38;3055230;19;19936;-54
2022/10/16 02:16:55;;;;;;;;;;;;;;;15.83;100.00;100551.63;3056133;19;19934;-54
2022/10/16 02:17:59;;;;;;;;;;;;;;;15.83;100.00;100551.63;3056379;19;19919;-53
2022/10/16 02:19:01;;;;;;;;;;;;;;;15.84;100.00;100553.34;3055422;19;19946;-54
2022/10/16 02:20:07;;;;;;;;;;;;;;;15.84;100.00;100553.34;3055037;19;19914;-52
2022/10/16 02:21:19;;;;;;;;;;;;;;;15.83;100.00;100557.84;3055933;19;19927;-51
2022/10/16 02:22:23;;;;;;;;;;;;;;;15.85;100.00;100555.03;3055526;19;19930;-50
2022/10/16 02:23:32;;;;;;;;;;;;;;;15.85;100.00;100555.03;3055313;19;19927;-55
2022/10/16 02:24:52;;;;;;;;;;;;;;;15.83;100.00;100551.63;3057771;19;19922;-51
2022/10/16 02:25:54;;;;;;;;;;;;;;;15.82;100.00;100550.75;3056089;19;19982;-51
2022/10/16 02:27:25;;;;;;;;;;;;;;;15.83;100.00;100551.63;3055255;19;19919;-52
2022/10/16 02:28:28;;;;;;;;;;;;;;;15.83;100.00;100551.63;3054625;19;20355;-52
2022/10/16 02:29:33;;;;;;;;;;;;;;;15.82;100.00;100566.06;3055954;19;20548;-53
2022/10/16 02:30:39;;;;;;;;;;;;;;;15.80;100.00;100552.75;3055622;19;19978;-53
2022/10/16 02:31:44;;;;;;;;;;;;;;;15.81;100.00;100556.31;3055403;19;19923;-54
2022/10/16 02:32:46;;;;;;;;;;;;;;;15.79;100.00;100556.41;3055444;19;20369;-51
2022/10/16 02:33:50;;;;;;;;;;;;;;;15.81;100.00;100559.00;3054768;19;20022;-53
2022/10/16 02:34:52;;;;;;;;;;;;;;;15.80;100.00;100558.13;3055445;19;19947;-52
2022/10/16 02:35:57;;;;;;;;;;;;;;;15.81;100.00;100569.75;3055276;19;19926;-52
2022/10/16 02:36:59;;;;;;;;;;;;;;;15.81;100.00;100564.38;3055378;19;19932;-54
2022/10/16 02:38:03;;;;;;;;;;;;;;;15.79;100.00;100569.03;3055085;19;20311;-54
2022/10/16 02:39:05;;;;;;;;;;;;;;;15.81;100.00;100569.75;3055475;19;20330;-51
2022/10/16 02:40:10;;;;;;;;;;;;;;;15.79;100.00;100560.94;3054507;19;19927;-52
2022/10/16 02:41:12;;;;;;;;;;;;;;;15.79;100.00;100560.94;3056101;19;19914;-55
2022/10/16 02:42:16;;;;;;;;;;;;;;;15.78;100.00;100565.47;3054795;19;19930;-56
2022/10/16 02:43:18;;;;;;;;;;;;;;;15.79;100.00;100563.63;3055354;19;19989;-55
2022/10/16 02:44:23;;;;;;;;;;;;;;;15.79;100.00;100563.63;3054833;19;20060;-53
2022/10/16 02:45:25;;;;;;;;;;;;;;;15.79;100.00;100560.94;3055033;19;20011;-54
2022/10/16 02:46:29;;;;;;;;;;;;;;;15.80;100.00;100566.22;3055480;19;20334;-52
2022/10/16 02:47:31;;;;;;;;;;;;;;;15.81;100.00;100567.06;3056074;19;20266;-51
2022/10/16 02:48:36;;;;;;;;;;;;;;;15.81;100.00;100569.75;3055391;19;20464;-52
2022/10/16 02:49:38;;;;;;;;;;;;;;;15.81;100.00;100567.91;3055968;19;19922;-54
2022/10/16 02:50:42;;;;;;;;;;;;;;;15.82;100.00;100568.75;3055553;19;19927;-52
2022/10/16 02:51:45;;;;;;;;;;;;;;;15.83;100.00;100578.53;3056018;19;19919;-53
2022/10/16 02:52:50;;;;;;;;;;;;;;;15.85;100.00;100576.56;3056021;19;19926;-51
2022/10/16 02:53:52;;;;;;;;;;;;;;;15.85;100.00;100576.56;3055776;19;20334;-53
2022/10/16 02:54:56;;;;;;;;;;;;;;;15.85;100.00;100568.50;3055523;19;19984;-53
2022/10/16 02:55:58;;;;;;;;;;;;;;;15.88;100.00;100579.03;3055693;19;20008;-53
2022/10/16 02:57:02;;;;;;;;;;;;;;;15.87;100.00;100571.06;3055964;19;19931;-52
2022/10/16 02:58:04;;;;;;;;;;;;;;;15.88;100.00;100576.31;3055943;19;19927;-53
2022/10/16 02:59:09;;;;;;;;;;;;;;;15.88;100.00;100578.16;3055860;19;19918;-56
2022/10/16 03:00:12;;;;;;;;;;;;;;;15.87;100.00;100574.63;3055611;19;19914;-54
2022/10/16 03:01:17;;;;;;;;;;;;;;;15.87;100.00;100574.63;3054604;19;19935;-53
2022/10/16 03:02:19;;;;;;;;;;;;;;;15.88;100.00;100581.72;3055098;19;19951;-52
2022/10/16 03:03:23;;;;;;;;;;;;;;;15.87;100.00;100585.38;3055901;19;19919;-53
2022/10/16 03:04:25;;;;;;;;;;;;;;;15.88;100.00;100587.09;3055431;19;19954;-52
2022/10/16 03:05:29;;;;;;;;;;;;;;;15.87;100.00;100579.13;3054851;19;19923;-52
2022/10/16 03:06:31;;;;;;;;;;;;;;;15.88;100.00;100586.25;3054740;19;19927;-51
2022/10/16 03:07:36;;;;;;;;;;;;;;;15.89;100.00;100594.19;3055822;19;20358;-53
2022/10/16 03:08:38;;;;;;;;;;;;;;;15.89;100.00;100594.19;3055876;19;19927;-54
2022/10/16 03:09:42;;;;;;;;;;;;;;;15.89;100.00;100587.94;3055605;19;19934;-54
2022/10/16 03:10:44;;;;;;;;;;;;;;;15.89;100.00;100588.81;3055344;19;19915;-52
2022/10/16 03:11:49;;;;;;;;;;;;;;;15.89;100.00;100591.50;3055763;19;20075;-54
2022/10/16 03:13:12;;;;;;;;;;;;;;;;;;;;;
2022/10/16 03:14:17;;;;;;;;;;;;;;;15.87;100.00;100590.75;3054790;19;19923;-51
2022/10/16 03:15:19;;;;;;;;;;;;;;;15.87;100.00;100585.38;3054662;19;19923;-52
2022/10/16 03:16:23;;;;;;;;;;;;;;;15.87;100.00;100581.84;3055182;19;19940;-52
2022/10/16 03:17:25;;;;;;;;;;;;;;;15.85;100.00;100592.72;3055661;19;19923;-56
2022/10/16 03:18:30;;;;;;;;;;;;;;;15.85;100.00;100582.81;3055913;19;19927;-52
2022/10/16 03:19:32;;;;;;;;;;;;;;;15.85;100.00;100584.66;3055443;19;19923;-55
2022/10/16 03:20:36;;;;;;;;;;;;;;;15.84;100.00;100591.00;3055637;19;19943;-54
2022/10/16 03:21:38;;;;;;;;;;;;;;;15.83;100.00;100592.00;3055653;19;20028;-52
2022/10/16 03:22:43;;;;;;;;;;;;;;;15.84;100.00;100599.94;3055833;19;19919;-53
2022/10/16 03:23:44;;;;;;;;;;;;;;;15.83;100.00;100594.69;3055202;19;19930;-51
2022/10/16 03:24:49;;;;;;;;;;;;;;;15.82;100.00;100604.59;3055362;19;20646;-56
2022/10/16 03:25:51;;;;;;;;;;;;;;;15.81;100.00;100597.53;3055438;19;20312;-53
2022/10/16 03:26:55;;;;;;;;;;;;;;;15.79;100.00;100599.47;3055547;19;20500;-53
2022/10/16 03:28:00;;;;;;;;;;;;;;;15.77;100.00;100593.34;3055504;19;20650;-55
2022/10/16 03:29:03;;;;;;;;;;;;;;;15.76;100.00;100596.16;3055804;19;19940;-54
2022/10/16 03:30:08;;;;;;;;;;;;;;;15.75;100.00;100595.31;3055314;19;19938;-52
2022/10/16 03:31:10;;;;;;;;;;;;;;;15.73;100.00;100596.41;3054833;19;19942;-53
2022/10/16 03:32:14;;;;;;;;;;;;;;;15.70;100.00;100593.97;3054246;19;19919;-53
2022/10/16 03:33:16;;;;;;;;;;;;;;;15.68;100.00;100601.34;3055565;19;19919;-54
2022/10/16 03:34:21;;;;;;;;;;;;;;;15.65;100.00;100598.88;3055193;19;20579;-55
2022/10/16 03:35:23;;;;;;;;;;;;;;;15.63;100.00;100603.53;3055556;19;19953;-55
2022/10/16 03:36:28;;;;;;;;;;;;;;;15.59;100.00;100596.66;3054753;19;19946;-52
2022/10/16 03:37:29;;;;;;;;;;;;;;;15.57;100.00;100604.03;3055605;19;20322;-53
2022/10/16 03:38:34;;;;;;;;;;;;;;;15.56;100.00;100599.63;3054984;19;19978;-52
2022/10/16 03:39:36;;;;;;;;;;;;;;;15.56;100.00;100602.31;3055610;19;19915;-51
2022/10/16 03:40:40;;;;;;;;;;;;;;;15.54;100.00;100606.94;3055263;19;19927;-56
2022/10/16 03:41:42;;;;;;;;;;;;;;;15.54;100.00;100601.56;3055681;19;19923;-55
2022/10/16 03:42:47;;;;;;;;;;;;;;;15.53;100.00;100607.91;3055258;19;19940;-51
2022/10/16 03:43:48;;;;;;;;;;;;;;;15.50;100.00;100604.47;3055544;19;19935;-50
2022/10/16 03:44:53;;;;;;;;;;;;;;;15.51;100.00;100599.97;3055332;19;19919;-54
2022/10/16 03:45:55;;;;;;;;;;;;;;;15.52;100.00;100606.19;3055284;19;20238;-51
2022/10/16 03:46:59;;;;;;;;;;;;;;;15.52;100.00;100601.66;3055220;19;20028;-55
2022/10/16 03:48:03;;;;;;;;;;;;;;;15.54;100.00;100604.25;3055329;19;20238;-55
2022/10/16 03:49:07;;;;;;;;;;;;;;;15.54;100.00;100604.25;3055466;19;19942;-54
2022/10/16 03:50:10;;;;;;;;;;;;;;;15.53;100.00;100605.22;3055581;19;19926;-55
2022/10/16 03:51:15;;;;;;;;;;;;;;;15.54;100.00;100604.25;3055575;19;19933;-53
2022/10/16 03:52:17;;;;;;;;;;;;;;;15.53;100.00;100607.91;3056090;19;19987;-55
2022/10/16 03:53:41;;;;;;;;;;;;;;;15.54;100.00;100604.25;3058272;19;19935;-52
2022/10/16 03:54:43;;;;;;;;;;;;;;;15.46;100.00;100596.75;3058370;19;19929;-52
2022/10/16 03:55:48;;;;;;;;;;;;;;;15.53;100.00;100606.06;3057966;19;19995;-54
2022/10/16 03:56:50;;;;;;;;;;;;;;;15.53;100.00;100608.75;3057782;19;19930;-55
2022/10/16 03:57:55;;;;;;;;;;;;;;;15.53;100.00;100608.75;3058378;19;19918;-54
2022/10/16 03:58:56;;;;;;;;;;;;;;;15.54;100.00;100606.94;3057511;19;19914;-52
2022/10/16 04:00:01;;;;;;;;;;;;;;;15.53;100.00;100607.91;3058283;19;19919;-52
2022/10/16 04:01:12;;;;;;;;;;;;;;;15.52;100.00;100611.56;3058181;19;19919;-56
2022/10/16 04:02:17;;;;;;;;;;;;;;;15.52;100.00;100609.75;3058095;19;19919;-52
2022/10/16 04:03:19;;;;;;;;;;;;;;;15.50;100.00;100615.22;3057115;19;19940;-55
2022/10/16 04:04:24;;;;;;;;;;;;;;;15.46;100.00;100611.06;3057230;19;19932;-54
2022/10/16 04:05:26;;;;;;;;;;;;;;;15.45;100.00;100601.31;3057875;19;19982;-52
2022/10/16 04:06:31;;;;;;;;;;;;;;;15.42;100.00;100612.31;3055558;19;20339;-52
2022/10/16 04:07:33;;;;;;;;;;;;;;;15.37;100.00;100597.50;3056957;19;19955;-51
2022/10/16 04:08:38;;;;;;;;;;;;;;;15.29;100.00;100606.19;3057302;19;20369;-51
2022/10/16 04:09:41;;;;;;;;;;;;;;;15.22;100.00;100610.31;3057191;19;19929;-53
2022/10/16 04:10:46;;;;;;;;;;;;;;;15.12;100.00;100609.34;3057438;19;19930;-54
2022/10/16 04:11:48;;;;;;;;;;;;;;;15.04;100.00;100612.66;3057899;19;19922;-56
2022/10/16 04:12:54;;;;;;;;;;;;;;;14.95;100.00;100616.06;3058203;19;19922;-54
2022/10/16 04:13:56;;;;;;;;;;;;;;;14.83;100.00;100614.31;3057888;19;19922;-54
2022/10/16 04:15:00;;;;;;;;;;;;;;;14.73;100.00;100608.78;3058002;19;19947;-53
2022/10/16 04:16:02;;;;;;;;;;;;;;;14.62;100.00;100614.13;3058104;19;19915;-53
2022/10/16 04:17:07;;;;;;;;;;;;;;;14.52;100.00;100613.13;3057542;19;20014;-52
2022/10/16 04:18:09;;;;;;;;;;;;;;;14.42;100.00;100614.78;3056841;19;19927;-53
2022/10/16 04:19:13;;;;;;;;;;;;;;;14.32;100.00;100619.97;3058661;19;19923;-54
2022/10/16 04:20:15;;;;;;;;;;;;;;;14.21;100.00;100611.00;3057786;19;19936;-55
2022/10/16 04:21:20;;;;;;;;;;;;;;;14.12;100.00;100606.34;3058479;19;20634;-54
2022/10/16 04:22:22;;;;;;;;;;;;;;;14.03;100.00;100611.38;3058884;19;20024;-53
2022/10/16 04:23:27;;;;;;;;;;;;;;;13.95;100.00;100615.63;3057691;19;20253;-51
2022/10/16 04:24:28;;;;;;;;;;;;;;;13.87;100.00;100618.88;3058030;19;19922;-52
2022/10/16 04:25:33;;;;;;;;;;;;;;;13.80;100.00;100622.09;3057903;19;19922;-52
2022/10/16 04:26:35;;;;;;;;;;;;;;;13.72;100.00;100609.25;3057757;19;19923;-53
2022/10/16 04:27:40;;;;;;;;;;;;;;;13.66;100.00;100621.25;3057637;19;19998;-52
2022/10/16 04:28:49;;;;;;;;;;;;;;;13.58;100.00;100617.44;3057932;19;19921;-55
2022/10/16 04:29:51;;;;;;;;;;;;;;;13.51;100.00;100610.81;3057599;19;20570;-50
2022/10/16 04:30:55;;;;;;;;;;;;;;;13.45;100.00;100606.72;3056953;19;19923;-52
2022/10/16 04:31:57;;;;;;;;;;;;;;;13.40;100.00;100605.38;3057035;19;19923;-54
2022/10/16 04:33:02;;;;;;;;;;;;;;;13.33;100.00;100603.09;3057963;19;19922;-54
2022/10/16 04:34:04;;;;;;;;;;;;;;;13.28;100.00;100599.06;3057745;19;19927;-53
2022/10/16 04:35:08;;;;;;;;;;;;;;;13.22;100.00;100592.28;3057649;19;19926;-50
2022/10/16 04:36:10;;;;;;;;;;;;;;;13.18;100.00;100598.81;3057453;19;20302;-51
2022/10/16 04:37:15;;;;;;;;;;;;;;;13.14;100.00;100602.69;3057331;19;19947;-51
2022/10/16 04:38:17;;;;;;;;;;;;;;;13.09;100.00;100588.72;3057893;19;20035;-55
2022/10/16 04:39:21;;;;;;;;;;;;;;;13.05;100.00;100597.94;3055723;19;19919;-53
2022/10/16 04:40:23;;;;;;;;;;;;;;;13.02;100.00;100594.63;3057612;19;19935;-54
2022/10/16 04:41:27;;;;;;;;;;;;;;;12.97;100.00;100592.25;3056955;19;19978;-55
2022/10/16 04:42:29;;;;;;;;;;;;;;;12.92;100.00;100587.22;3057501;19;20299;-52
2022/10/16 04:43:34;;;;;;;;;;;;;;;12.89;100.00;100583.91;3057435;19;19915;-56
2022/10/16 04:44:36;;;;;;;;;;;;;;;12.85;100.00;100587.75;3057237;19;19919;-53
2022/10/16 04:45:40;;;;;;;;;;;;;;;12.83;100.00;100587.00;3057598;19;19935;-51
2022/10/16 04:46:42;;;;;;;;;;;;;;;12.79;100.00;100590.88;3057314;19;20294;-55
2022/10/16 04:47:47;;;;;;;;;;;;;;;12.77;100.00;100588.31;3057582;19;19921;-55
2022/10/16 04:48:48;;;;;;;;;;;;;;;12.73;100.00;100588.59;3057412;19;19931;-53
2022/10/16 04:49:53;;;;;;;;;;;;;;;12.73;100.00;100591.28;3057595;19;19918;-54
2022/10/16 04:50:55;;;;;;;;;;;;;;;12.70;100.00;100586.13;3056881;19;20522;-53
2022/10/16 04:52:00;;;;;;;;;;;;;;;12.68;100.00;100582.72;3057487;19;20025;-54
2022/10/16 04:53:02;;;;;;;;;;;;;;;12.67;100.00;100581.00;3056682;19;19919;-55
2022/10/16 04:54:06;;;;;;;;;;;;;;;12.66;100.00;100576.63;3057425;19;20019;-55
2022/10/16 04:55:11;;;;;;;;;;;;;;;12.66;100.00;100579.28;3057235;19;20038;-52
2022/10/16 04:56:12;;;;;;;;;;;;;;;12.65;100.00;100574.91;3057862;19;19927;-52
2022/10/16 04:57:17;;;;;;;;;;;;;;;12.65;100.00;100585.59;3056129;19;19928;-55
2022/10/16 04:58:19;;;;;;;;;;;;;;;12.63;100.00;100578.53;3056692;19;19918;-54
2022/10/16 04:59:23;;;;;;;;;;;;;;;12.63;100.00;100583.03;3057413;19;19919;-54
2022/10/16 05:00:25;;;;;;;;;;;;;;;12.62;100.00;100590.19;3057819;19;20035;-54
2022/10/16 05:01:30;;;;;;;;;;;;;;;12.62;100.00;100590.19;3057259;19;19926;-54
2022/10/16 05:02:32;;;;;;;;;;;;;;;12.61;100.00;100583.13;3057385;19;19936;-53
2022/10/16 05:03:36;;;;;;;;;;;;;;;12.62;100.00;100587.53;3054788;19;19935;-52
2022/10/16 05:04:41;;;;;;;;;;;;;;;12.61;100.00;100584.94;3057185;19;19915;-56
2022/10/16 05:05:43;;;;;;;;;;;;;;;12.60;100.00;100592.13;3056866;19;20613;-53
2022/10/16 05:06:48;;;;;;;;;;;;;;;12.59;100.00;100585.06;3056506;19;20002;-54
2022/10/16 05:07:50;;;;;;;;;;;;;;;12.60;100.00;100588.59;3057147;19;20263;-53
2022/10/16 05:08:57;;;;;;;;;;;;;;;12.60;100.00;100592.13;3057501;19;19939;-53
2022/10/16 05:10:00;;;;;;;;;;;;;;;12.59;100.00;100585.06;3057025;19;19926;-52
2022/10/16 05:11:04;;;;;;;;;;;;;;;12.60;100.00;100581.41;3057392;19;19934;-49
2022/10/16 05:12:06;;;;;;;;;;;;;;;12.61;100.00;100584.94;3057179;19;20027;-50
2022/10/16 05:13:11;;;;;;;;;;;;;;;12.62;100.00;100578.63;3057332;19;19949;-53
2022/10/16 05:14:22;;;;;;;;;;;;;;;12.63;100.00;100581.22;3057172;19;19923;-51
2022/10/16 05:15:28;;;;;;;;;;;;;;;12.65;100.00;100582.94;3057306;19;19923;-50
2022/10/16 05:16:30;;;;;;;;;;;;;;;12.66;100.00;100587.31;3057341;19;19926;-49
2022/10/16 05:17:35;;;;;;;;;;;;;;;12.68;100.00;100588.09;3056281;19;20249;-49
2022/10/16 05:18:40;;;;;;;;;;;;;;;12.68;100.00;100588.09;3056594;19;19934;-52
2022/10/16 05:19:45;;;;;;;;;;;;;;;12.69;100.00;100579.06;3056847;19;19939;-51
2022/10/16 05:20:46;;;;;;;;;;;;;;;12.70;100.00;100575.41;3057348;19;19923;-51
2022/10/16 05:21:51;;;;;;;;;;;;;;;12.72;100.00;100570.81;3056526;19;19923;-51
2022/10/16 05:22:53;;;;;;;;;;;;;;;12.73;100.00;100567.19;3057303;19;19936;-54
2022/10/16 05:23:57;;;;;;;;;;;;;;;12.74;100.00;100567.09;3055955;19;19915;-51
2022/10/16 05:24:59;;;;;;;;;;;;;;;12.75;100.00;100582.19;3056496;19;19922;-54
2022/10/16 05:26:03;;;;;;;;;;;;;;;12.77;100.00;100566.03;3056671;19;19939;-49
2022/10/16 05:27:05;;;;;;;;;;;;;;;12.78;100.00;100575.78;3057302;19;19923;-53
2022/10/16 05:28:10;;;;;;;;;;;;;;;12.79;100.00;100566.78;3056679;19;20351;-52
2022/10/16 05:29:12;;;;;;;;;;;;;;;12.81;100.00;100572.84;3056586;19;20114;-51